Time;durP1;ratioP1;P1;durP2;ratioP2;P2;SDS_P1;SDS_P2;PMS_P1;PMS_P2;Temp;Humidity;BMP_temperature;BMP_pressure;BME280_temperature;BME280_humidity;BME280_pressure;Samples;Min_cycle;Max_cycle;Signal;HPM_P1;HPM_P2
2022/02/04 00:20:28;;;;;;;23.17;15.15;;;7.80;99.90;;;;;;5011290;28;20084;-56
2022/02/04 00:25:55;;;;;;;23.92;13.80;;;7.80;99.90;;;;;;5011206;28;20442;-56
2022/02/04 00:33:43;;;;;;;22.35;14.52;;;7.80;99.90;;;;;;5011232;28;20419;-56
2022/02/04 00:36:18;;;;;;;25.55;14.23;;;7.80;99.90;;;;;;5010709;28;20101;-56
2022/02/04 00:38:48;;;;;;;19.50;13.32;;;7.80;99.90;;;;;;5014235;28;20464;-56
2022/02/04 00:41:17;;;;;;;22.42;13.75;;;7.80;99.90;;;;;;5014141;28;20511;-56
2022/02/04 00:43:43;;;;;;;23.77;12.70;;;7.80;99.90;;;;;;5014847;28;20472;-56
2022/02/04 00:48:50;;;;;;;15.48;10.85;;;7.80;99.90;;;;;;5014896;28;20026;-57
2022/02/04 00:56:37;;;;;;;18.25;11.50;;;7.80;99.90;;;;;;5014434;28;20109;-56
2022/02/04 01:26:19;;;;;;;13.55;9.05;;;7.90;99.90;;;;;;5013796;28;20075;-56
2022/02/04 01:28:47;;;;;;;13.43;8.38;;;7.90;99.90;;;;;;5013941;28;20489;-56
2022/02/04 01:31:18;;;;;;;13.90;8.40;;;7.90;99.90;;;;;;5012062;28;20042;-56
2022/02/04 01:33:46;;;;;;;14.23;8.82;;;7.90;99.90;;;;;;5013673;28;20026;-56
2022/02/04 01:36:13;;;;;;;11.68;8.13;;;8.00;99.90;;;;;;5013162;28;20026;-56
2022/02/04 01:38:39;;;;;;;12.63;8.35;;;8.00;99.90;;;;;;5013598;28;20025;-55
2022/02/04 01:41:09;;;;;;;12.52;7.88;;;8.00;99.90;;;;;;5013554;28;20418;-57
2022/02/04 01:43:36;;;;;;;11.32;7.72;;;8.00;99.90;;;;;;5013212;28;20152;-56
2022/02/04 01:46:04;;;;;;;13.45;8.18;;;8.00;99.90;;;;;;5013400;28;20018;-56
2022/02/04 01:48:31;;;;;;;13.00;6.82;;;8.00;99.90;;;;;;5013468;28;20022;-56
2022/02/04 01:50:57;;;;;;;13.52;7.75;;;8.00;99.90;;;;;;5012975;28;20111;-57
2022/02/04 01:53:30;;;;;;;11.88;7.00;;;8.00;99.90;;;;;;5013286;28;20415;-56
2022/02/04 01:56:03;;;;;;;12.70;7.10;;;8.00;99.90;;;;;;5011987;28;20018;-56
2022/02/04 01:58:29;;;;;;;9.32;5.65;;;8.00;99.90;;;;;;5013343;28;20030;-55
2022/02/04 02:00:54;;;;;;;10.23;5.65;;;8.00;99.90;;;;;;5013031;28;20498;-56
2022/02/04 02:03:21;;;;;;;10.35;6.15;;;7.90;99.90;;;;;;5012925;28;20029;-56
2022/02/04 02:05:48;;;;;;;9.55;6.03;;;8.00;99.90;;;;;;5013035;28;20499;-56
2022/02/04 02:08:16;;;;;;;9.75;5.63;;;8.00;99.90;;;;;;5012977;28;20034;-57
2022/02/04 02:10:44;;;;;;;10.57;6.57;;;8.00;99.90;;;;;;5012843;28;20033;-56
2022/02/04 02:15:56;;;;;;;17.52;7.10;;;8.00;99.90;;;;;;5012933;28;20388;-56
2022/02/04 02:51:26;;;;;;;12.48;7.60;;;8.00;99.90;;;;;;5012575;28;20376;-56
2022/02/04 02:53:57;;;;;;;8.43;6.20;;;8.00;99.90;;;;;;5011895;28;20034;-56
2022/02/04 03:01:20;;;;;;;13.57;7.18;;;8.00;99.90;;;;;;5011517;28;20048;-56
2022/02/04 03:03:51;;;;;;;9.10;6.88;;;8.00;99.90;;;;;;5012255;28;20105;-57
2022/02/04 03:06:17;;;;;;;12.43;6.93;;;8.00;99.90;;;;;;5012456;28;20022;-57
2022/02/04 03:08:43;;;;;;;11.65;6.70;;;8.00;99.90;;;;;;5011538;28;20033;-56
2022/02/04 03:11:08;;;;;;;15.32;6.60;;;8.00;99.90;;;;;;5011969;28;20033;-57
2022/02/04 03:13:35;;;;;;;9.98;6.38;;;8.00;99.90;;;;;;5012213;28;20036;-56
2022/02/04 03:16:09;;;;;;;9.25;6.85;;;8.00;99.90;;;;;;5010807;28;20022;-56
2022/02/04 03:18:38;;;;;;;12.68;6.38;;;8.00;99.90;;;;;;5011579;28;20029;-56
2022/02/04 03:21:13;;;;;;;13.00;6.57;;;8.00;99.90;;;;;;5011396;28;20026;-57
2022/02/04 03:23:41;;;;;;;11.25;6.00;;;8.00;99.90;;;;;;5011458;28;20022;-56
2022/02/04 03:26:12;;;;;;;8.32;5.97;;;8.00;99.90;;;;;;5011208;28;20468;-56
2022/02/04 03:28:38;;;;;;;9.48;5.68;;;8.00;99.90;;;;;;5011764;28;20434;-56
2022/02/04 03:31:05;;;;;;;7.30;6.45;;;8.00;99.90;;;;;;5011098;28;20038;-56
2022/02/04 03:33:34;;;;;;;9.15;5.40;;;8.00;99.90;;;;;;5011466;28;20100;-56
2022/02/04 03:35:59;;;;;;;6.13;4.78;;;8.00;99.90;;;;;;5012007;28;20022;-56
2022/02/04 03:38:25;;;;;;;8.85;5.72;;;8.00;99.90;;;;;;5011496;28;20422;-56
2022/02/04 03:40:51;;;;;;;10.52;6.88;;;8.00;99.90;;;;;;5011537;28;20067;-57
2022/02/04 03:43:16;;;;;;;12.23;6.07;;;8.00;99.90;;;;;;5011329;28;20030;-56
2022/02/04 03:45:42;;;;;;;7.28;6.47;;;8.00;99.90;;;;;;5012426;28;20033;-56
2022/02/04 03:48:09;;;;;;;10.25;6.18;;;8.00;99.90;;;;;;5011253;28;20114;-56
2022/02/04 03:50:34;;;;;;;9.07;5.68;;;8.00;99.90;;;;;;5011537;28;20030;-55
2022/02/04 03:53:00;;;;;;;8.60;6.75;;;8.00;99.90;;;;;;5011590;28;20342;-56
2022/02/04 03:55:26;;;;;;;9.40;6.80;;;8.00;99.90;;;;;;5011352;28;20025;-56
2022/02/04 03:57:52;;;;;;;10.10;6.85;;;8.00;99.90;;;;;;5010942;28;20022;-56
2022/02/04 04:00:18;;;;;;;9.00;6.85;;;8.00;99.90;;;;;;5011396;28;20434;-58
2022/02/04 04:02:45;;;;;;;12.15;7.35;;;8.00;99.90;;;;;;5011556;28;20028;-56
2022/02/04 04:05:12;;;;;;;13.63;7.82;;;8.00;99.90;;;;;;5011516;28;20033;-56
2022/02/04 04:07:42;;;;;;;8.80;5.80;;;8.00;99.90;;;;;;5011006;28;20022;-56
2022/02/04 04:10:13;;;;;;;13.90;7.22;;;8.00;99.90;;;;;;5011167;28;20049;-57
2022/02/04 04:12:38;;;;;;;10.57;7.75;;;8.00;99.90;;;;;;5015156;28;20057;-57
2022/02/04 04:15:06;;;;;;;10.48;6.40;;;8.00;99.90;;;;;;5013906;28;20033;-56
2022/02/04 04:17:38;;;;;;;12.35;7.63;;;8.00;99.90;;;;;;5014328;28;20018;-56
2022/02/04 04:20:05;;;;;;;11.15;8.18;;;8.00;99.90;;;;;;5014857;28;20030;-56
2022/02/04 04:22:32;;;;;;;11.30;6.88;;;8.00;99.90;;;;;;5014428;28;20041;-56
2022/02/04 04:24:57;;;;;;;10.35;7.55;;;8.00;99.90;;;;;;5014927;28;20033;-56
2022/02/04 04:27:23;;;;;;;12.00;7.97;;;8.00;99.90;;;;;;5013860;28;20368;-57
2022/02/04 04:29:48;;;;;;;9.93;6.60;;;8.00;99.90;;;;;;5014839;28;20136;-57
2022/02/04 04:32:14;;;;;;;12.32;7.72;;;8.00;99.90;;;;;;5014969;28;20088;-56
2022/02/04 04:34:40;;;;;;;12.43;8.40;;;8.00;99.90;;;;;;5015274;28;20452;-56
2022/02/04 04:37:06;;;;;;;11.40;7.97;;;8.00;99.90;;;;;;5014532;28;20072;-56
2022/02/04 04:39:40;;;;;;;11.50;8.60;;;8.00;99.90;;;;;;5014789;28;20041;-56
2022/02/04 04:42:15;;;;;;;12.02;8.60;;;8.00;99.90;;;;;;5015110;28;20034;-57
2022/02/04 04:45:10;;;;;;;13.55;9.68;;;8.00;99.90;;;;;;5015088;28;20414;-57
2022/02/04 05:26:37;;;;;;;15.73;12.23;;;7.90;99.90;;;;;;4990860;28;20092;-56
2022/02/04 05:29:10;;;;;;;15.90;10.77;;;7.90;99.90;;;;;;5013189;28;20589;-56
2022/02/04 05:31:36;;;;;;;18.13;12.13;;;7.90;99.90;;;;;;5013231;28;20097;-57
2022/02/04 05:34:02;;;;;;;16.40;11.45;;;7.80;99.90;;;;;;5013438;28;20098;-56
2022/02/04 05:36:28;;;;;;;17.25;11.88;;;7.80;99.90;;;;;;5014041;28;20034;-56
2022/02/04 05:38:54;;;;;;;17.92;12.32;;;7.80;99.90;;;;;;5014357;28;20518;-56
2022/02/04 05:41:28;;;;;;;18.88;12.10;;;7.80;99.90;;;;;;5014364;28;20099;-56
2022/02/04 05:43:57;;;;;;;16.45;12.30;;;7.80;99.90;;;;;;5012538;28;20022;-55
2022/02/04 05:46:28;;;;;;;18.50;13.13;;;7.80;99.90;;;;;;5013629;28;20113;-55
2022/02/04 05:48:56;;;;;;;17.43;12.00;;;7.70;99.90;;;;;;5011829;28;20121;-56
2022/02/04 05:54:16;;;;;;;16.23;11.98;;;7.70;99.90;;;;;;5013026;28;20026;-56
2022/02/04 06:22:47;;;;;;;15.20;10.95;;;7.40;99.90;;;;;;5013325;28;20029;-56
2022/02/04 06:25:13;;;;;;;15.13;12.15;;;7.50;99.90;;;;;;5012691;28;20026;-56
2022/02/04 06:27:39;;;;;;;16.95;10.13;;;7.50;99.90;;;;;;5012590;28;20038;-56
2022/02/04 06:30:05;;;;;;;17.85;12.73;;;7.50;99.90;;;;;;5012310;28;20134;-55
2022/02/04 06:32:34;;;;;;;15.68;10.85;;;7.50;99.90;;;;;;5012437;28;20072;-57
2022/02/04 06:35:00;;;;;;;16.02;10.85;;;7.50;99.90;;;;;;5011822;28;20025;-56
2022/02/04 06:37:26;;;;;;;15.13;10.10;;;7.50;99.90;;;;;;5011668;28;20029;-56
2022/02/04 06:39:52;;;;;;;15.38;11.85;;;7.50;99.90;;;;;;5012384;28;20521;-56
2022/02/04 06:42:26;;;;;;;14.68;11.52;;;7.50;99.90;;;;;;5012411;28;20026;-57
2022/02/04 06:44:52;;;;;;;13.82;11.32;;;7.50;99.90;;;;;;5010940;28;20030;-56
2022/02/04 06:47:18;;;;;;;12.65;9.32;;;7.50;99.90;;;;;;5010297;28;20028;-56
2022/02/04 06:49:45;;;;;;;10.38;7.15;;;7.60;99.90;;;;;;5011947;28;20475;-55
2022/02/04 06:52:11;;;;;;;10.90;8.80;;;7.50;99.90;;;;;;5012304;28;20029;-55
2022/02/04 06:54:36;;;;;;;10.60;9.32;;;7.60;99.90;;;;;;5014255;28;20483;-55
2022/02/04 06:57:02;;;;;;;12.35;8.00;;;7.50;99.90;;;;;;5023909;28;20436;-56
2022/02/04 06:59:28;;;;;;;8.98;8.05;;;7.60;99.90;;;;;;5027336;28;20021;-56
2022/02/04 07:01:54;;;;;;;11.52;8.50;;;7.60;99.90;;;;;;5025396;28;20029;-56
2022/02/04 07:04:20;;;;;;;9.57;7.53;;;7.60;99.90;;;;;;5018387;28;20120;-55
2022/02/04 07:06:53;;;;;;;9.73;7.70;;;7.60;99.90;;;;;;5023227;28;20029;-54
2022/02/04 07:14:51;;;;;;;7.18;6.47;;;7.70;99.90;;;;;;5020564;28;20017;-55
2022/02/04 07:17:53;;;;;;;7.28;5.72;;;7.70;99.90;;;;;;5014899;28;20030;-56
2022/02/04 07:20:18;;;;;;;6.18;5.55;;;7.70;99.90;;;;;;5007557;28;20655;-55
2022/02/04 07:22:44;;;;;;;6.18;5.57;;;7.80;99.90;;;;;;5015628;28;20114;-56
2022/02/04 07:25:09;;;;;;;6.47;5.68;;;7.70;99.90;;;;;;5016211;28;20119;-56
2022/02/04 07:27:37;;;;;;;8.20;6.10;;;7.80;99.90;;;;;;5014265;28;20030;-56
2022/02/04 07:30:04;;;;;;;5.97;5.38;;;7.80;99.90;;;;;;5021033;28;20050;-55
2022/02/04 07:32:42;;;;;;;4.88;3.50;;;7.90;99.90;;;;;;5021708;28;20026;-56
2022/02/04 07:35:30;;;;;;;6.47;5.85;;;7.90;99.90;;;;;;5024307;28;20076;-55
2022/02/04 07:40:54;;;;;;;6.55;5.95;;;7.80;99.90;;;;;;5017514;28;20515;-56
2022/02/04 07:43:22;;;;;;;9.43;6.53;;;7.80;99.90;;;;;;5012918;28;20120;-58
2022/02/04 07:45:48;;;;;;;7.35;5.97;;;7.80;99.90;;;;;;5013350;28;20475;-55
2022/02/04 07:48:15;;;;;;;6.90;5.90;;;7.80;99.90;;;;;;5023425;28;20021;-55
2022/02/04 07:50:43;;;;;;;6.00;5.35;;;7.80;99.90;;;;;;5018615;28;20455;-57
2022/02/04 07:53:08;;;;;;;6.82;6.13;;;7.90;99.90;;;;;;5012761;28;20017;-56
2022/02/04 07:55:34;;;;;;;7.18;5.43;;;7.90;99.90;;;;;;5015878;28;20372;-57
2022/02/04 07:58:00;;;;;;;9.10;6.40;;;7.90;99.90;;;;;;5012451;28;20026;-56
2022/02/04 08:00:27;;;;;;;7.68;4.93;;;7.90;99.90;;;;;;5024014;28;20030;-56
2022/02/04 08:02:53;;;;;;;7.78;6.25;;;8.00;99.90;;;;;;5018793;28;20051;-55
2022/02/04 08:05:23;;;;;;;7.70;5.60;;;8.00;99.90;;;;;;5020738;28;20022;-56
2022/02/04 08:16:17;;;;;;;9.40;7.18;;;8.10;99.90;;;;;;5016405;28;20113;-56
2022/02/04 08:36:52;;;;;;;9.77;7.75;;;8.20;99.90;;;;;;5017699;28;20026;-56
2022/02/04 08:48:24;;;;;;;14.32;10.05;;;8.10;99.90;;;;;;5022964;28;20092;-55
2022/02/04 08:55:02;;;;;;;12.40;9.77;;;8.10;99.90;;;;;;5021075;28;20029;-56
2022/02/04 08:57:49;;;;;;;11.30;8.40;;;8.10;99.90;;;;;;5023735;28;20018;-56
2022/02/04 09:02:43;;;;;;;9.68;7.35;;;8.10;99.90;;;;;;5023361;28;20033;-56
2022/02/04 09:05:16;;;;;;;11.40;8.77;;;8.10;99.90;;;;;;5020119;28;20037;-56
2022/02/04 09:10:15;;;;;;;9.45;6.78;;;8.00;99.90;;;;;;5013730;28;20097;-57
2022/02/04 09:20:35;;;;;;;8.82;6.82;;;8.30;99.90;;;;;;5021825;28;20037;-56
2022/02/04 09:23:01;;;;;;;10.52;6.72;;;8.30;99.90;;;;;;5019029;28;20055;-56
2022/02/04 09:25:27;;;;;;;8.98;7.10;;;8.20;99.90;;;;;;5019882;28;20045;-56
2022/02/04 09:27:53;;;;;;;10.73;7.78;;;8.20;99.90;;;;;;5021616;28;20044;-56
2022/02/04 09:30:20;;;;;;;9.55;6.82;;;8.20;99.90;;;;;;5016002;28;20122;-56
2022/02/04 09:32:46;;;;;;;9.07;6.78;;;8.10;99.90;;;;;;5023834;28;20029;-56
2022/02/04 09:35:15;;;;;;;9.73;6.72;;;8.10;99.90;;;;;;5020111;28;20075;-56
2022/02/04 09:37:42;;;;;;;9.65;8.10;;;8.20;99.90;;;;;;5018132;28;20014;-58
2022/02/04 09:40:10;;;;;;;9.07;6.90;;;8.20;99.90;;;;;;5014221;28;20042;-56
2022/02/04 09:42:38;;;;;;;11.55;7.13;;;8.20;99.90;;;;;;5020740;28;20033;-56
2022/02/04 09:45:08;;;;;;;10.65;7.13;;;8.30;99.90;;;;;;5017595;28;20056;-56
2022/02/04 09:47:34;;;;;;;9.68;7.35;;;8.30;99.90;;;;;;5028820;28;20569;-56
2022/02/04 09:50:06;;;;;;;8.88;6.85;;;8.40;99.90;;;;;;5022281;28;20022;-56
2022/02/04 10:09:52;;;;;;;8.25;5.50;;;8.50;99.90;;;;;;5030217;28;20029;-56
2022/02/04 10:12:49;;;;;;;6.65;5.80;;;8.50;99.90;;;;;;5008793;28;20479;-56
2022/02/04 10:18:09;;;;;;;6.10;4.38;;;8.60;99.90;;;;;;5028142;28;20548;-56
2022/02/04 10:20:37;;;;;;;6.53;5.30;;;8.60;99.90;;;;;;5020341;28;20033;-56
2022/02/04 10:23:03;;;;;;;5.05;4.43;;;8.70;99.90;;;;;;5016244;28;20120;-56
2022/02/04 10:25:31;;;;;;;7.30;5.10;;;8.70;99.90;;;;;;5015937;28;20604;-56
2022/02/04 10:27:59;;;;;;;5.88;5.13;;;8.80;99.90;;;;;;5018504;28;20022;-56
2022/02/04 10:30:31;;;;;;;7.18;5.63;;;8.80;99.90;;;;;;5012161;28;20522;-56
2022/02/04 10:32:58;;;;;;;8.23;5.22;;;8.80;99.90;;;;;;5010798;28;20026;-56
2022/02/04 10:35:34;;;;;;;5.53;4.63;;;8.80;99.90;;;;;;5016314;28;20069;-56
2022/02/04 10:38:24;;;;;;;7.00;5.32;;;8.90;99.90;;;;;;5013613;28;20049;-57
2022/02/04 10:41:01;;;;;;;6.85;4.60;;;8.80;99.90;;;;;;5017363;28;20405;-56
2022/02/04 10:43:57;;;;;;;7.25;5.00;;;8.80;99.90;;;;;;5014080;28;20022;-56
2022/02/04 11:02:58;;;;;;;9.52;6.35;;;8.80;99.90;;;;;;4962075;28;20741;-57
2022/02/04 11:05:43;;;;;;;6.97;5.50;;;8.90;99.90;;;;;;5006651;28;20564;-57
2022/02/04 11:11:12;;;;;;;7.65;5.82;;;8.90;99.90;;;;;;5011125;28;20095;-56
2022/02/04 11:36:33;;;;;;;8.65;5.03;;;9.20;99.90;;;;;;5017433;28;20103;-57
2022/02/04 11:54:30;;;;;;;7.38;4.80;;;9.30;99.90;;;;;;5019209;28;20030;-57
2022/02/04 11:56:56;;;;;;;6.07;5.05;;;9.30;99.90;;;;;;5015458;28;20021;-56
2022/02/04 11:59:41;;;;;;;11.75;5.22;;;9.40;99.90;;;;;;5017449;28;20630;-56
2022/02/04 12:02:34;;;;;;;7.50;4.82;;;9.50;99.90;;;;;;5013351;28;20029;-57
2022/02/04 12:05:08;;;;;;;7.95;4.80;;;9.50;99.90;;;;;;5012091;28;20041;-56
2022/02/04 12:07:55;;;;;;;8.75;5.30;;;9.50;99.90;;;;;;5019153;28;20029;-56
2022/02/04 12:10:23;;;;;;;7.72;4.78;;;9.50;99.90;;;;;;5012031;28;20068;-56
2022/02/04 12:12:55;;;;;;;7.22;4.80;;;9.50;99.90;;;;;;5009595;28;20170;-56
2022/02/04 12:15:47;;;;;;;4.90;4.10;;;9.60;99.90;;;;;;5011904;28;20045;-56
2022/02/04 12:18:15;;;;;;;6.38;3.97;;;9.70;99.90;;;;;;5017938;28;20040;-56
2022/02/04 12:20:51;;;;;;;4.65;3.13;;;9.70;99.90;;;;;;5019048;28;20033;-56
2022/02/04 12:23:29;;;;;;;3.42;2.65;;;9.80;99.90;;;;;;5020876;28;20033;-55
2022/02/04 12:26:17;;;;;;;7.03;4.15;;;9.80;99.90;;;;;;5020024;28;20037;-56
2022/02/04 12:29:07;;;;;;;4.78;3.30;;;9.80;99.90;;;;;;5016276;28;20421;-56
2022/02/04 12:31:36;;;;;;;3.67;2.40;;;9.80;99.90;;;;;;5017839;28;20041;-56
2022/02/04 12:34:01;;;;;;;6.55;2.78;;;9.70;99.90;;;;;;5023465;28;20026;-55
2022/02/04 12:36:30;;;;;;;3.83;2.58;;;9.60;99.90;;;;;;5028235;28;20028;-56
2022/02/04 12:38:59;;;;;;;5.85;2.70;;;9.60;99.90;;;;;;5028738;28;20518;-56
2022/02/04 12:41:30;;;;;;;10.02;2.42;;;9.50;99.90;;;;;;5025625;28;20034;-56
2022/02/04 12:44:05;;;;;;;5.10;1.40;;;9.60;99.90;;;;;;5027816;28;20503;-57
2022/02/04 12:46:33;;;;;;;4.38;2.53;;;9.60;99.90;;;;;;5015983;28;20030;-57
2022/02/04 12:49:04;;;;;;;2.92;2.40;;;9.50;99.90;;;;;;5015822;28;20394;-56
2022/02/04 12:51:32;;;;;;;9.90;2.58;;;9.50;99.90;;;;;;5026617;28;20197;-57
2022/02/04 12:53:58;;;;;;;3.13;2.20;;;9.50;99.90;;;;;;5021087;28;20034;-56
2022/02/04 12:56:40;;;;;;;7.00;3.03;;;9.40;99.90;;;;;;5015829;28;20441;-56
2022/02/04 13:07:45;;;;;;;2.47;1.65;;;9.00;99.90;;;;;;4981472;28;20042;-56
2022/02/04 13:10:20;;;;;;;3.33;1.48;;;8.90;99.90;;;;;;4982470;28;20038;-55
2022/02/04 13:12:54;;;;;;;3.45;1.40;;;8.80;99.90;;;;;;5005653;28;20096;-56
2022/02/04 13:15:21;;;;;;;2.63;1.48;;;8.80;99.90;;;;;;5019070;28;20026;-56
2022/02/04 13:17:47;;;;;;;3.17;1.80;;;8.60;99.90;;;;;;5020123;28;20580;-56
2022/02/04 13:20:16;;;;;;;3.38;1.77;;;8.50;99.90;;;;;;5023808;28;20108;-55
2022/02/04 13:22:42;;;;;;;3.28;1.00;;;8.40;99.90;;;;;;5013333;28;20025;-56
2022/02/04 13:25:11;;;;;;;3.50;1.55;;;8.30;99.90;;;;;;5017728;28;20026;-55
2022/02/04 13:27:38;;;;;;;2.83;1.50;;;8.20;99.90;;;;;;5010482;28;20033;-57
2022/02/04 13:30:27;;;;;;;4.68;1.80;;;8.20;99.90;;;;;;5019618;28;20117;-61
2022/02/04 13:32:53;;;;;;;3.28;2.15;;;8.10;99.90;;;;;;5012973;28;20144;-59
2022/02/04 13:35:31;;;;;;;6.22;1.83;;;8.00;99.90;;;;;;5021979;28;20098;-61
2022/02/04 13:38:05;;;;;;;4.38;1.95;;;8.00;99.90;;;;;;5009416;28;20218;-61
2022/02/04 13:40:56;;;;;;;6.65;2.38;;;8.00;99.90;;;;;;5012145;28;20080;-61
2022/02/04 13:43:36;;;;;;;3.90;2.03;;;8.00;99.90;;;;;;5012667;28;20061;-60
2022/02/04 13:46:38;;;;;;;4.82;2.55;;;8.00;99.90;;;;;;5026994;28;20517;-60
2022/02/04 13:51:49;;;;;;;3.45;1.80;;;8.00;99.90;;;;;;5021424;28;20057;-61
2022/02/04 13:57:52;;;;;;;4.43;2.17;;;7.90;99.90;;;;;;5016776;28;20112;-61
2022/02/04 14:02:49;;;;;;;7.70;2.58;;;7.90;99.90;;;;;;5014113;28;20128;-66
2022/02/04 14:05:42;;;;;;;6.47;2.92;;;7.90;99.90;;;;;;5018692;28;20820;-62
2022/02/04 14:08:11;;;;;;;3.22;0.93;;;8.00;99.90;;;;;;5018748;28;20144;-60
2022/02/04 14:10:48;;;;;;;4.82;0.90;;;7.70;99.90;;;;;;5019374;28;20123;-62
2022/02/04 14:13:19;;;;;;;1.73;0.70;;;7.40;99.90;;;;;;5016143;28;20029;-60
2022/02/04 14:15:54;;;;;;;2.35;0.90;;;7.30;99.90;;;;;;5020831;28;20517;-61
2022/02/04 14:18:20;;;;;;;3.53;0.70;;;7.10;99.90;;;;;;5013645;28;20053;-60
2022/02/04 14:20:46;;;;;;;1.02;0.38;;;7.00;99.90;;;;;;5016961;28;20025;-60
2022/02/04 14:23:13;;;;;;;1.92;0.57;;;6.80;99.90;;;;;;5031933;28;20026;-60
2022/02/04 14:26:07;;;;;;;1.33;0.40;;;6.70;99.90;;;;;;5023095;28;20037;-61
2022/02/04 14:31:10;;;;;;;0.73;0.35;;;6.50;99.90;;;;;;5029767;28;20101;-60
2022/02/04 14:36:13;;;;;;;1.15;0.50;;;6.10;99.90;;;;;;5029811;28;20096;-60
2022/02/04 15:00:39;;;;;;;0.80;0.40;;;6.10;99.90;;;;;;5049383;28;20419;-59
2022/02/04 15:05:42;;;;;;;1.33;0.50;;;6.00;99.90;;;;;;5046276;28;20025;-59
2022/02/04 15:08:15;;;;;;;2.60;0.60;;;6.00;99.90;;;;;;5051169;28;20083;-58
2022/02/04 15:10:43;;;;;;;1.90;0.50;;;6.10;99.90;;;;;;5027378;28;20037;-58
2022/02/04 15:13:14;;;;;;;2.47;0.90;;;6.00;99.90;;;;;;5021746;28;20028;-58
2022/02/04 15:15:40;;;;;;;3.15;0.70;;;5.90;99.90;;;;;;5025725;28;20025;-58
2022/02/04 15:18:06;;;;;;;2.13;0.88;;;5.80;99.90;;;;;;5027554;28;20036;-59
2022/02/04 15:20:32;;;;;;;3.72;0.90;;;5.80;99.90;;;;;;5038663;28;20557;-59
2022/02/04 15:22:58;;;;;;;7.28;1.50;;;5.70;99.90;;;;;;5036148;28;20383;-59
2022/02/04 15:25:24;;;;;;;5.38;0.90;;;5.70;99.90;;;;;;5029365;28;20510;-59
2022/02/04 15:30:31;;;;;;;5.90;0.98;;;5.60;99.90;;;;;;5029787;28;20053;-58
2022/02/04 15:32:57;;;;;;;3.08;0.88;;;5.60;99.90;;;;;;5024846;28;20018;-59
2022/02/04 15:35:23;;;;;;;5.63;1.65;;;5.70;99.90;;;;;;5041389;28;20024;-59
2022/02/04 15:37:48;;;;;;;4.68;0.98;;;5.70;99.90;;;;;;5053927;28;20021;-59
2022/02/04 15:40:14;;;;;;;3.40;1.13;;;5.80;99.90;;;;;;5054804;28;20360;-59
2022/02/04 15:42:52;;;;;;;2.83;1.13;;;5.80;99.90;;;;;;5051273;28;20092;-59
2022/02/04 15:56:15;;;;;;;6.43;1.55;;;6.10;99.90;;;;;;5049651;28;20072;-58
2022/02/04 15:58:57;;;;;;;8.18;1.95;;;5.90;99.90;;;;;;5050625;28;20338;-57
2022/02/04 16:01:57;;;;;;;;;;;5.80;99.90;;;;;;5051115;28;20033;-58
2022/02/04 16:04:24;;;;;;;6.28;1.65;;;5.60;99.90;;;;;;5050649;28;20360;-63
2022/02/04 16:06:50;;;;;;;10.02;2.30;;;5.60;99.90;;;;;;5050326;28;20029;-58
2022/02/04 16:09:19;;;;;;;10.63;2.28;;;5.60;99.90;;;;;;5057491;28;20029;-58
2022/02/04 16:14:19;;;;;;;10.95;1.90;;;5.60;99.90;;;;;;5055370;28;20106;-59
2022/02/04 16:17:33;;;;;;;8.70;2.10;;;5.60;99.90;;;;;;5055169;28;20055;-58
2022/02/04 16:19:35;;;;;;;12.15;2.40;;;5.60;99.90;;;;;;5044088;28;20103;-59
2022/02/04 16:24:48;;;;;;;16.05;2.28;;;5.50;99.90;;;;;;5055174;28;20021;-59
2022/02/04 16:29:49;;;;;;;9.77;2.58;;;5.40;99.90;;;;;;5054981;28;20128;-60
2022/02/04 16:32:17;;;;;;;12.77;2.53;;;5.30;99.90;;;;;;5054770;28;20029;-59
2022/02/04 16:34:43;;;;;;;8.18;2.30;;;5.30;99.90;;;;;;5055021;28;20201;-59
2022/02/04 16:37:18;;;;;;;10.23;2.53;;;5.30;99.90;;;;;;5054562;28;20021;-60
2022/02/04 16:39:46;;;;;;;13.80;3.05;;;5.20;99.90;;;;;;5055007;28;20021;-59
2022/02/04 16:42:16;;;;;;;13.63;2.75;;;5.20;99.90;;;;;;5054607;28;20025;-59
2022/02/04 16:44:42;;;;;;;10.75;2.85;;;5.30;99.90;;;;;;5054919;28;20375;-59
2022/02/04 16:47:10;;;;;;;18.20;3.20;;;5.30;99.90;;;;;;5054562;28;20032;-59
2022/02/04 16:49:37;;;;;;;14.20;2.78;;;5.40;99.90;;;;;;5054704;28;20025;-58
2022/02/04 16:52:05;;;;;;;12.45;3.22;;;5.40;99.90;;;;;;5053081;28;20029;-58
2022/02/04 16:54:33;;;;;;;15.45;3.63;;;5.40;99.90;;;;;;5054298;28;20061;-58
2022/02/04 16:56:59;;;;;;;12.05;2.70;;;5.40;99.90;;;;;;5053761;28;20029;-58
2022/02/04 16:59:25;;;;;;;16.52;3.28;;;5.40;99.90;;;;;;5054325;28;20107;-57
2022/02/04 17:01:52;;;;;;;16.75;3.42;;;5.40;99.90;;;;;;5053994;28;20032;-58
2022/02/04 17:04:18;;;;;;;12.05;3.65;;;5.40;99.90;;;;;;5053998;28;20045;-58
2022/02/04 17:06:47;;;;;;;13.07;3.38;;;5.40;99.90;;;;;;5054008;28;20229;-57
2022/02/04 17:11:46;;;;;;;12.10;2.55;;;5.60;99.90;;;;;;5053917;28;20345;-57
2022/02/04 17:14:13;;;;;;;15.18;2.40;;;5.50;99.90;;;;;;5054241;28;20382;-57
2022/02/04 17:16:42;;;;;;;10.88;2.45;;;5.50;99.90;;;;;;5054348;28;20025;-57
2022/02/04 17:19:09;;;;;;;18.10;5.03;;;5.50;99.90;;;;;;5052759;28;20044;-57
2022/02/04 17:21:36;;;;;;;10.32;2.80;;;5.50;99.90;;;;;;5052425;28;20025;-57
2022/02/04 17:24:01;;;;;;;14.98;2.78;;;5.40;99.90;;;;;;5053712;28;20017;-57
2022/02/04 17:26:27;;;;;;;13.85;2.80;;;5.30;99.90;;;;;;5053949;28;20110;-58
2022/02/04 17:28:54;;;;;;;14.75;2.90;;;5.30;99.90;;;;;;5054215;28;20057;-57
2022/02/04 17:31:20;;;;;;;10.27;3.58;;;5.30;99.90;;;;;;5053376;28;20112;-57
2022/02/04 17:33:46;;;;;;;16.55;2.72;;;5.30;99.90;;;;;;5054177;28;20497;-58
2022/02/04 17:36:12;;;;;;;16.00;3.33;;;5.30;99.90;;;;;;5053940;28;20108;-58
2022/02/04 17:38:38;;;;;;;14.45;3.40;;;5.20;99.90;;;;;;5053647;28;20097;-57
2022/02/04 17:41:05;;;;;;;13.43;3.67;;;5.20;99.90;;;;;;5053403;28;20036;-57
2022/02/04 17:43:31;;;;;;;18.02;3.95;;;5.20;99.90;;;;;;5053695;28;20032;-57
2022/02/04 17:45:57;;;;;;;30.83;10.05;;;5.20;99.90;;;;;;5052516;28;20236;-58
2022/02/04 17:48:26;;;;;;;16.02;3.30;;;5.10;99.90;;;;;;5052978;28;20040;-59
2022/02/04 17:51:10;;;;;;;13.23;3.40;;;5.10;99.90;;;;;;5052932;28;20028;-58
2022/02/04 17:53:55;;;;;;;12.90;3.65;;;5.00;99.90;;;;;;5053963;28;20013;-58
2022/02/04 17:56:34;;;;;;;16.02;7.45;;;5.00;99.90;;;;;;5036127;28;20022;-58
2022/02/04 18:07:16;;;;;;;22.52;8.27;;;4.90;99.90;;;;;;5013234;28;20068;-58
2022/02/04 18:09:44;;;;;;;16.48;8.20;;;4.90;99.90;;;;;;5017913;28;20038;-58
2022/02/04 18:12:11;;;;;;;18.42;6.43;;;4.80;99.90;;;;;;5021395;28;20068;-58
2022/02/04 18:14:37;;;;;;;22.67;9.73;;;4.80;99.90;;;;;;5016049;28;20056;-58
2022/02/04 18:17:04;;;;;;;21.90;12.85;;;4.70;99.90;;;;;;5013046;28;20036;-58
2022/02/04 18:19:30;;;;;;;21.15;8.77;;;4.70;99.90;;;;;;5012617;28;20030;-58
2022/02/04 18:21:56;;;;;;;13.27;8.18;;;4.60;99.90;;;;;;5012815;28;20387;-58
2022/02/04 18:24:22;;;;;;;16.02;7.00;;;4.60;99.90;;;;;;5012877;28;20029;-58
2022/02/04 18:26:48;;;;;;;31.65;14.38;;;4.70;99.90;;;;;;5013137;28;20485;-58
2022/02/04 18:29:14;;;;;;;30.00;16.35;;;4.60;99.90;;;;;;5013125;28;20042;-58
2022/02/04 18:31:40;;;;;;;19.73;7.40;;;4.50;99.90;;;;;;5011271;28;20035;-58
2022/02/04 18:34:06;;;;;;;20.27;9.88;;;4.50;99.90;;;;;;5012762;28;20475;-58
2022/02/04 18:36:33;;;;;;;15.52;5.50;;;4.50;99.90;;;;;;5012615;28;20029;-57
2022/02/04 18:39:24;;;;;;;20.33;9.85;;;4.50;99.90;;;;;;5010981;28;20052;-58
2022/02/04 18:42:12;;;;;;;13.35;5.93;;;4.50;99.90;;;;;;5012145;28;20056;-57
2022/02/04 18:44:49;;;;;;;17.15;7.97;;;4.50;99.90;;;;;;5012338;28;20091;-57
2022/02/04 18:50:04;;;;;;;18.05;5.47;;;4.60;99.90;;;;;;5012277;28;20026;-58
2022/02/04 18:55:39;;;;;;;17.80;5.47;;;4.70;99.90;;;;;;5011919;28;20042;-57
2022/02/04 18:57:53;;;;;;;13.68;5.18;;;4.80;99.90;;;;;;5012869;28;20030;-57
2022/02/04 19:00:20;;;;;;;11.52;6.03;;;4.90;99.90;;;;;;5013394;28;20030;-58
2022/02/04 19:02:50;;;;;;;11.98;4.40;;;4.90;99.90;;;;;;5010976;28;20082;-57
2022/02/04 19:05:26;;;;;;;12.98;4.50;;;4.90;99.90;;;;;;5012106;28;20084;-58
2022/02/04 19:07:58;;;;;;;11.82;3.97;;;4.90;99.90;;;;;;5010432;28;20523;-58
2022/02/04 19:10:24;;;;;;;15.05;4.70;;;4.80;99.90;;;;;;5011551;28;20030;-57
2022/02/04 19:12:55;;;;;;;8.77;3.35;;;4.80;99.90;;;;;;5012375;28;20038;-57
2022/02/04 19:18:15;;;;;;;11.43;3.67;;;4.80;99.90;;;;;;5011727;28;20030;-57
2022/02/04 19:20:52;;;;;;;13.63;4.03;;;4.80;99.90;;;;;;5010681;28;20030;-57
2022/02/04 19:23:24;;;;;;;13.52;3.78;;;4.90;99.90;;;;;;5012035;28;20274;-57
2022/02/04 19:25:53;;;;;;;12.52;3.55;;;4.90;99.90;;;;;;5011864;28;20097;-57
2022/02/04 19:28:22;;;;;;;11.45;4.15;;;4.90;99.90;;;;;;5011929;28;20576;-57
2022/02/04 19:30:50;;;;;;;9.35;3.22;;;4.90;99.90;;;;;;5011842;28;20057;-57
2022/02/04 19:33:18;;;;;;;6.95;2.92;;;5.00;99.90;;;;;;5012689;28;20054;-57
2022/02/04 19:35:44;;;;;;;5.65;2.85;;;5.00;99.90;;;;;;5011799;28;20024;-57
2022/02/04 19:38:10;;;;;;;9.73;3.75;;;5.00;99.90;;;;;;5010959;28;20033;-57
2022/02/04 19:40:38;;;;;;;8.52;2.70;;;5.00;99.90;;;;;;5010691;28;20021;-57
2022/02/04 19:43:04;;;;;;;10.80;2.95;;;5.00;99.90;;;;;;5010992;28;20032;-57